Terminal Aerodrome Forecast
Issued by NWS

Home | Current Version | Previous Version | Graphics & Text | Print | Product List | Glossary Off
Versions: 1 2 3 4 5 6 7 8 9 10 11 12 13 14

000
FTUS45 KGGW 220527
TAFOLF
TAF
KOLF 220527Z 2206/2306 32011KT P6SM SCT100
     FM221200 26005KT P6SM SCT150
     FM230000 29010KT P6SM FEW150=

USA.gov is the U.S. government's official web portal to all federal, state and local government web resources and services.